Time;durP1;ratioP1;P1;durP2;ratioP2;P2;SDS_P1;SDS_P2;PMS_P1;PMS_P2;Temp;Humidity;BMP_temperature;BMP_pressure;BME280_temperature;BME280_humidity;BME280_pressure;Samples;Min_cycle;Max_cycle;Signal;HPM_P1;HPM_P2
2023/03/21 00:02:18;;;;;;;;;;;;;;;8.14;70.22;97195.83;109979;1244;59696;-67
2023/03/21 00:04:48;;;;;;;;;;;;;;;8.17;71.01;97191.30;110086;1242;71215;-68
2023/03/21 00:07:22;;;;;;;;;;;;;;;8.18;70.36;97185.88;110030;1245;69317;-67
2023/03/21 00:09:52;;;;;;;;;;;;;;;8.22;69.69;97188.55;109964;1242;69146;-67
2023/03/21 00:12:36;;;;;;;;;;;;;;;8.27;68.59;97191.17;109866;1244;59767;-67
2023/03/21 00:15:06;;;;;;;;;;;;;;;8.30;68.53;97192.20;109808;1244;59691;-67
2023/03/21 00:17:38;;;;;;;;;;;;;;;8.31;67.99;97190.89;109856;1245;70936;-67
2023/03/21 00:20:14;;;;;;;;;;;;;;;8.27;69.70;97191.19;109881;1245;69172;-67
2023/03/21 00:22:43;;;;;;;;;;;;;;;8.15;71.59;97195.77;109880;1244;69925;-66
2023/03/21 00:25:12;;;;;;;;;;;;;;;7.95;74.13;97192.05;110010;1244;59696;-67
2023/03/21 00:27:42;;;;;;;;;;;;;;;7.91;73.60;97195.78;109825;1245;59694;-67
2023/03/21 00:30:33;;;;;;;;;;;;;;;7.93;71.19;97199.88;109910;1244;71576;-69
2023/03/21 00:33:02;;;;;;;;;;;;;;;7.94;73.45;97196.67;109927;1244;70242;-68
2023/03/21 00:35:51;;;;;;;;;;;;;;;7.97;73.76;97197.66;109945;1244;69216;-68
2023/03/21 00:38:35;;;;;;;;;;;;;;;8.01;70.72;97202.80;109879;1243;59692;-66
2023/03/21 00:41:10;;;;;;;;;;;;;;;8.03;72.78;97205.08;109914;1244;59654;-66
2023/03/21 00:43:56;;;;;;;;;;;;;;;8.03;73.46;97198.48;110103;1244;71348;-67
2023/03/21 00:46:28;;;;;;;;;;;;;;;8.03;72.78;97203.55;110049;1244;69249;-67
2023/03/21 00:49:13;;;;;;;;;;;;;;;7.97;73.69;97207.38;110074;1246;69392;-68
2023/03/21 00:51:44;;;;;;;;;;;;;;;7.79;74.97;97204.23;110064;1244;60076;-69
2023/03/21 00:54:14;;;;;;;;;;;;;;;7.76;72.87;97195.23;110006;1244;59729;-67
2023/03/21 00:56:44;;;;;;;;;;;;;;;7.76;72.54;97201.13;110094;1245;71412;-67
2023/03/21 00:59:15;;;;;;;;;;;;;;;7.78;74.83;97202.92;109999;1244;69107;-68
2023/03/21 01:01:45;;;;;;;;;;;;;;;7.80;77.22;97195.32;110054;1245;69350;-67
2023/03/21 01:04:15;;;;;;;;;;;;;;;7.78;77.70;97203.23;109918;1247;59714;-69
2023/03/21 01:06:45;;;;;;;;;;;;;;;7.76;79.44;97202.04;110018;1244;59769;-68
2023/03/21 01:09:16;;;;;;;;;;;;;;;7.73;79.22;97202.02;109914;1243;71422;-68
2023/03/21 01:11:46;;;;;;;;;;;;;;;7.72;75.25;97200.70;110116;1245;68462;-67
2023/03/21 01:14:17;;;;;;;;;;;;;;;7.73;74.56;97200.67;109904;1248;68408;-67
2023/03/21 01:16:52;;;;;;;;;;;;;;;7.74;72.70;97193.62;110025;1246;59702;-67
2023/03/21 01:19:28;;;;;;;;;;;;;;;7.75;75.05;97198.97;110088;1245;59641;-68
2023/03/21 01:22:17;;;;;;;;;;;;;;;7.74;77.50;97201.08;110078;1243;71383;-71
2023/03/21 01:24:46;;;;;;;;;;;;;;;7.71;80.45;97198.53;109957;1245;69065;-68
2023/03/21 01:27:37;;;;;;;;;;;;;;;7.67;80.23;97198.92;109986;1244;69442;-67
2023/03/21 01:30:07;;;;;;;;;;;;;;;7.64;80.03;97197.90;110072;1244;59676;-67
2023/03/21 01:32:49;;;;;;;;;;;;;;;7.64;79.88;97194.09;109936;1245;59659;-67
2023/03/21 01:35:18;;;;;;;;;;;;;;;7.63;80.39;97197.25;110045;1244;71821;-67
2023/03/21 01:37:48;;;;;;;;;;;;;;;7.63;80.24;97193.11;109992;1245;69198;-67
2023/03/21 01:40:21;;;;;;;;;;;;;;;7.63;82.62;97194.88;110050;1244;70217;-67
2023/03/21 01:42:51;;;;;;;;;;;;;;;7.60;84.18;97191.73;109948;1243;59769;-67
2023/03/21 01:45:41;;;;;;;;;;;;;;;7.57;83.45;97196.83;110032;1245;58913;-67
2023/03/21 01:48:11;;;;;;;;;;;;;;;7.49;83.34;97191.42;109761;1247;70616;-67
2023/03/21 01:50:48;;;;;;;;;;;;;;;7.44;83.55;97189.34;109828;1248;69644;-67
2023/03/21 01:53:29;;;;;;;;;;;;;;;7.42;81.85;97188.54;109804;1243;69241;-67
2023/03/21 01:56:01;;;;;;;;;;;;;;;7.42;81.95;97194.97;109718;1244;59769;-67
2023/03/21 01:58:58;;;;;;;;;;;;;;;7.43;81.96;97188.16;109839;1244;59700;-67
2023/03/21 02:02:10;;;;;;;;;;;;;;;7.47;80.84;97192.55;109300;1252;69696;-67
2023/03/21 02:04:54;;;;;;;;;;;;;;;7.51;81.98;97196.30;109353;1250;69412;-67
2023/03/21 02:07:30;;;;;;;;;;;;;;;7.53;84.38;97193.04;109671;1245;69202;-67
2023/03/21 02:10:07;;;;;;;;;;;;;;;7.55;84.75;97194.86;109937;1245;59700;-67
2023/03/21 02:12:37;;;;;;;;;;;;;;;7.57;83.93;97197.67;109858;1244;59742;-68
2023/03/21 02:15:08;;;;;;;;;;;;;;;7.58;82.09;97199.67;109871;1245;70855;-67
2023/03/21 02:18:02;;;;;;;;;;;;;;;7.60;85.50;97202.15;109823;1245;69568;-67
2023/03/21 02:20:40;;;;;;;;;;;;;;;7.60;87.26;97200.05;109784;1244;68313;-68
2023/03/21 02:23:25;;;;;;;;;;;;;;;7.59;85.14;97199.96;109867;1243;59674;-68
2023/03/21 02:26:03;;;;;;;;;;;;;;;7.57;84.71;97203.56;110018;1245;59687;-67
2023/03/21 02:28:53;;;;;;;;;;;;;;;7.54;87.49;97199.92;109966;1246;70664;-67
2023/03/21 02:31:27;;;;;;;;;;;;;;;7.54;88.61;97200.15;109883;1245;69179;-67
2023/03/21 02:34:37;;;;;;;;;;;;;;;7.54;89.96;97200.82;109959;1246;67404;-67
2023/03/21 02:37:23;;;;;;;;;;;;;;;7.53;89.98;97200.20;109458;1252;59883;-67
2023/03/21 02:40:09;;;;;;;;;;;;;;;7.50;88.23;97199.17;109391;1251;59679;-67
2023/03/21 02:42:49;;;;;;;;;;;;;;;7.48;91.19;97199.84;109746;1245;70852;-67
2023/03/21 02:45:42;;;;;;;;;;;;;;;7.40;89.62;97203.05;109864;1251;69066;-68
2023/03/21 02:48:21;;;;;;;;;;;;;;;7.36;89.17;97199.88;109754;1244;69142;-68
2023/03/21 02:51:04;;;;;;;;;;;;;;;7.32;88.60;97199.95;109953;1245;59671;-68
2023/03/21 02:53:40;;;;;;;;;;;;;;;7.30;87.26;97196.95;109793;1245;59691;-67
2023/03/21 02:56:10;;;;;;;;;;;;;;;7.26;87.02;97197.03;109824;1242;70545;-67
2023/03/21 02:58:47;;;;;;;;;;;;;;;7.22;87.30;97198.31;109953;1246;68738;-68
2023/03/21 03:01:19;;;;;;;;;;;;;;;7.18;87.90;97197.21;109868;1245;69265;-67
2023/03/21 03:03:51;;;;;;;;;;;;;;;7.17;87.10;97196.95;109795;1244;59674;-68
2023/03/21 03:06:32;;;;;;;;;;;;;;;7.17;88.08;97194.67;109949;1245;59709;-68
2023/03/21 03:09:03;;;;;;;;;;;;;;;7.15;87.75;97194.42;110000;1245;71966;-68
2023/03/21 03:11:35;;;;;;;;;;;;;;;7.14;84.45;97197.41;109857;1249;69314;-69
2023/03/21 03:14:25;;;;;;;;;;;;;;;7.11;83.38;97191.70;109846;1245;68451;-68
2023/03/21 03:17:21;;;;;;;;;;;;;;;7.04;88.95;97198.75;109806;1245;59713;-67
2023/03/21 03:19:52;;;;;;;;;;;;;;;6.99;92.54;97199.05;110075;1245;59670;-70
2023/03/21 03:22:27;;;;;;;;;;;;;;;6.98;91.90;97198.64;109891;1246;70508;-67
2023/03/21 03:24:59;;;;;;;;;;;;;;;6.95;94.34;97198.27;109801;1247;69237;-67
2023/03/21 03:27:48;;;;;;;;;;;;;;;6.92;97.24;97197.40;110048;1247;69375;-68
2023/03/21 03:30:21;;;;;;;;;;;;;;;6.89;97.64;97195.86;110016;1245;59730;-67
2023/03/21 03:33:01;;;;;;;;;;;;;;;6.85;98.86;97195.94;110118;1245;59745;-68
2023/03/21 03:35:30;;;;;;;;;;;;;;;6.82;99.97;97197.34;109909;1243;71393;-67
2023/03/21 03:38:05;;;;;;;;;;;;;;;6.80;100.00;97189.86;109934;1248;69158;-67
2023/03/21 03:40:49;;;;;;;;;;;;;;;6.78;99.74;97191.89;109918;1244;68417;-67
2023/03/21 03:43:45;;;;;;;;;;;;;;;6.77;99.97;97190.17;110056;1243;59751;-67
2023/03/21 03:46:20;;;;;;;;;;;;;;;6.79;100.00;97192.01;110069;1253;59737;-68
2023/03/21 03:48:53;;;;;;;;;;;;;;;6.78;99.65;97187.37;109947;1247;71235;-67
2023/03/21 03:51:46;;;;;;;;;;;;;;;6.77;99.36;97192.30;109821;1246;67631;-67
2023/03/21 03:54:38;;;;;;;;;;;;;;;6.76;99.87;97192.19;109995;1245;69102;-67
2023/03/21 03:57:11;;;;;;;;;;;;;;;6.76;99.74;97191.84;109756;1245;60088;-68
2023/03/21 03:59:42;;;;;;;;;;;;;;;6.78;99.50;97191.03;110083;1244;59753;-67
2023/03/21 04:02:32;;;;;;;;;;;;;;;6.79;99.03;97189.55;110054;1246;71911;-68
2023/03/21 04:05:03;;;;;;;;;;;;;;;6.78;99.97;97188.92;109999;1245;69310;-68
2023/03/21 04:07:32;;;;;;;;;;;;;;;6.78;99.24;97190.46;109990;1246;68722;-68
2023/03/21 04:10:04;;;;;;;;;;;;;;;6.79;99.88;97192.98;110012;1245;59701;-68
2023/03/21 04:12:40;;;;;;;;;;;;;;;6.80;100.00;97194.18;110043;1246;59710;-66
2023/03/21 04:15:24;;;;;;;;;;;;;;;6.80;100.00;97194.54;109893;1245;70653;-67
2023/03/21 04:17:58;;;;;;;;;;;;;;;6.81;98.80;97192.77;110056;1245;69627;-67
2023/03/21 04:20:29;;;;;;;;;;;;;;;6.79;96.33;97194.90;110086;1247;69133;-66
2023/03/21 04:23:11;;;;;;;;;;;;;;;6.78;95.24;97195.16;109906;1245;59654;-67
2023/03/21 04:25:45;;;;;;;;;;;;;;;6.76;99.38;97193.55;109847;1246;59704;-67
2023/03/21 04:28:28;;;;;;;;;;;;;;;6.73;100.00;97193.52;109884;1245;71549;-67
2023/03/21 04:31:18;;;;;;;;;;;;;;;6.74;100.00;97193.17;109814;1245;68672;-67
2023/03/21 04:34:01;;;;;;;;;;;;;;;6.75;100.00;97193.45;109751;1245;68280;-67
2023/03/21 04:36:37;;;;;;;;;;;;;;;6.75;100.00;97193.61;109786;1242;59676;-67
2023/03/21 04:39:11;;;;;;;;;;;;;;;6.76;100.00;97196.70;109866;1243;59735;-67
2023/03/21 04:41:41;;;;;;;;;;;;;;;6.75;100.00;97195.35;109781;1245;71297;-68
2023/03/21 04:44:12;;;;;;;;;;;;;;;6.76;100.00;97196.84;109779;1245;69738;-68
2023/03/21 04:46:42;;;;;;;;;;;;;;;6.76;100.00;97200.81;109935;1245;67631;-68
2023/03/21 04:49:12;;;;;;;;;;;;;;;6.77;100.00;97201.31;109861;1245;59708;-67
2023/03/21 04:51:44;;;;;;;;;;;;;;;6.78;100.00;97198.14;109749;1246;59665;-67
2023/03/21 04:54:16;;;;;;;;;;;;;;;6.79;100.00;97200.45;109957;1244;70701;-66
2023/03/21 04:56:46;;;;;;;;;;;;;;;6.81;100.00;97205.39;109888;1246;68468;-67
2023/03/21 04:59:15;;;;;;;;;;;;;;;6.81;100.00;97204.65;110058;1245;69864;-66
2023/03/21 05:01:44;;;;;;;;;;;;;;;6.84;100.00;97206.41;109820;1244;59708;-67
2023/03/21 05:04:13;;;;;;;;;;;;;;;6.85;100.00;97204.77;109964;1246;59700;-67
2023/03/21 05:06:43;;;;;;;;;;;;;;;6.87;100.00;97207.27;110024;1245;70600;-67
2023/03/21 05:09:13;;;;;;;;;;;;;;;6.89;100.00;97210.44;109849;1243;69813;-67
2023/03/21 05:11:43;;;;;;;;;;;;;;;6.92;100.00;97209.54;109789;1245;67560;-67
2023/03/21 05:14:15;;;;;;;;;;;;;;;6.94;100.00;97207.52;110073;1244;59704;-68
2023/03/21 05:16:51;;;;;;;;;;;;;;;6.97;100.00;97209.27;110026;1245;59927;-67
2023/03/21 05:19:23;;;;;;;;;;;;;;;7.01;100.00;97206.25;109923;1245;71868;-67
2023/03/21 05:21:52;;;;;;;;;;;;;;;7.05;99.95;97208.40;109901;1244;69835;-67
2023/03/21 05:24:23;;;;;;;;;;;;;;;7.09;97.16;97206.73;109790;1245;69911;-67
2023/03/21 05:26:54;;;;;;;;;;;;;;;7.14;99.26;97206.95;109879;1245;59747;-68
2023/03/21 05:29:28;;;;;;;;;;;;;;;7.20;100.00;97212.52;110037;1246;59694;-68
2023/03/21 05:32:01;;;;;;;;;;;;;;;7.24;100.00;97212.95;109815;1245;72280;-68
2023/03/21 05:34:30;;;;;;;;;;;;;;;7.28;100.00;97215.81;109847;1245;69831;-68
2023/03/21 05:37:00;;;;;;;;;;;;;;;7.32;99.78;97215.75;109938;1245;69031;-67
2023/03/21 05:39:49;;;;;;;;;;;;;;;7.37;99.68;97217.84;109898;1248;59673;-67
2023/03/21 05:42:25;;;;;;;;;;;;;;;7.42;100.00;97218.77;109939;1245;59637;-67
2023/03/21 05:44:55;;;;;;;;;;;;;;;7.46;100.00;97216.05;110001;1245;71753;-67
2023/03/21 05:47:31;;;;;;;;;;;;;;;7.50;100.00;97214.60;109985;1244;69074;-67
2023/03/21 05:50:01;;;;;;;;;;;;;;;7.54;99.05;97211.56;109953;1245;69803;-68
2023/03/21 05:52:30;;;;;;;;;;;;;;;7.57;99.23;97216.40;110074;1246;59821;-67
2023/03/21 05:55:00;;;;;;;;;;;;;;;7.59;98.76;97217.63;110076;1246;59691;-66
2023/03/21 05:57:28;;;;;;;;;;;;;;;7.62;93.52;97215.52;110018;1245;71467;-67
2023/03/21 06:00:06;;;;;;;;;;;;;;;7.64;91.65;97219.05;109940;1245;69087;-68
2023/03/21 06:02:45;;;;;;;;;;;;;;;7.66;92.47;97217.71;109956;1244;69360;-68
2023/03/21 06:05:37;;;;;;;;;;;;;;;7.69;91.96;97219.48;109708;1252;59795;-68
2023/03/21 06:08:10;;;;;;;;;;;;;;;7.72;92.34;97220.46;109877;1248;59682;-68
2023/03/21 06:10:40;;;;;;;;;;;;;;;7.76;92.51;97222.83;109960;1245;71783;-66
2023/03/21 06:13:09;;;;;;;;;;;;;;;7.81;91.24;97220.79;110009;1245;69839;-66
2023/03/21 06:15:39;;;;;;;;;;;;;;;7.83;90.92;97225.32;109933;1245;68530;-67
2023/03/21 06:18:13;;;;;;;;;;;;;;;7.87;90.94;97226.98;109915;1245;59814;-66
2023/03/21 06:20:51;;;;;;;;;;;;;;;7.90;93.66;97227.60;109919;1245;59653;-66
2023/03/21 06:23:20;;;;;;;;;;;;;;;7.98;97.89;97230.10;110101;1246;71791;-68
2023/03/21 06:25:49;;;;;;;;;;;;;;;8.05;98.18;97229.97;109983;1246;69235;-67
2023/03/21 06:28:19;;;;;;;;;;;;;;;8.12;98.93;97232.46;110062;1245;70230;-66
2023/03/21 06:30:48;;;;;;;;;;;;;;;8.19;99.43;97232.33;109952;1245;59668;-67
2023/03/21 06:33:22;;;;;;;;;;;;;;;8.27;98.65;97234.73;110071;1245;59660;-67
2023/03/21 06:35:53;;;;;;;;;;;;;;;8.37;98.57;97231.31;110013;1250;71963;-68
2023/03/21 06:38:22;;;;;;;;;;;;;;;8.48;95.36;97231.29;109802;1245;69641;-68
2023/03/21 06:40:52;;;;;;;;;;;;;;;8.58;92.86;97231.35;109957;1245;68356;-67
2023/03/21 06:43:22;;;;;;;;;;;;;;;8.66;91.31;97230.10;109881;1249;59679;-66
2023/03/21 06:45:51;;;;;;;;;;;;;;;8.71;90.87;97234.09;109843;1246;59622;-67
2023/03/21 06:48:21;;;;;;;;;;;;;;;8.76;90.16;97235.99;109846;1245;72050;-68
2023/03/21 06:50:52;;;;;;;;;;;;;;;8.81;89.31;97228.89;110133;1245;68480;-67
2023/03/21 06:53:28;;;;;;;;;;;;;;;8.85;89.06;97226.55;109796;1245;69092;-67
2023/03/21 06:56:24;;;;;;;;;;;;;;;8.92;88.83;97231.98;110084;1244;59757;-67
2023/03/21 06:58:53;;;;;;;;;;;;;;;8.98;88.71;97231.88;110082;1244;59698;-67
2023/03/21 07:01:36;;;;;;;;;;;;;;;9.01;89.78;97231.67;110127;1243;71971;-67
2023/03/21 07:04:07;;;;;;;;;;;;;;;9.09;89.29;97230.09;109930;1244;69453;-67
2023/03/21 07:06:37;;;;;;;;;;;;;;;9.18;89.34;97233.46;109831;1244;69422;-68
2023/03/21 07:09:07;;;;;;;;;;;;;;;9.28;89.49;97231.73;110037;1244;59671;-67
2023/03/21 07:11:36;;;;;;;;;;;;;;;9.35;88.63;97231.42;109784;1245;59680;-67
2023/03/21 07:14:05;;;;;;;;;;;;;;;9.40;87.56;97230.34;109780;1245;71421;-68
2023/03/21 07:16:34;;;;;;;;;;;;;;;9.40;87.67;97234.30;109866;1245;69892;-69
2023/03/21 07:19:03;;;;;;;;;;;;;;;9.43;87.70;97231.36;109799;1244;68577;-69
2023/03/21 07:21:32;;;;;;;;;;;;;;;9.45;86.81;97234.70;109876;1244;59816;-66
2023/03/21 07:24:01;;;;;;;;;;;;;;;9.45;86.56;97236.97;110094;1245;59714;-67
2023/03/21 07:26:30;;;;;;;;;;;;;;;9.43;86.57;97239.89;110048;1244;71354;-67
2023/03/21 07:28:59;;;;;;;;;;;;;;;9.42;87.30;97243.20;109842;1244;68724;-67
2023/03/21 07:31:28;;;;;;;;;;;;;;;9.46;88.48;97244.73;109802;1245;69867;-67
2023/03/21 07:33:57;;;;;;;;;;;;;;;9.52;87.17;97244.65;109770;1245;59756;-67
2023/03/21 07:36:26;;;;;;;;;;;;;;;9.56;87.61;97245.37;109853;1246;59687;-67
2023/03/21 07:38:55;;;;;;;;;;;;;;;9.63;86.73;97248.04;109756;1246;71428;-67
2023/03/21 07:41:24;;;;;;;;;;;;;;;9.68;86.57;97244.89;109977;1244;69267;-67
2023/03/21 07:43:53;;;;;;;;;;;;;;;9.74;87.69;97243.42;109911;1245;68403;-66
2023/03/21 07:46:25;;;;;;;;;;;;;;;9.82;87.05;97243.54;109761;1246;59740;-67
2023/03/21 07:48:55;;;;;;;;;;;;;;;9.88;86.97;97241.67;109775;1244;60142;-67
2023/03/21 07:51:24;;;;;;;;;;;;;;;9.95;88.02;97242.73;109824;1245;70615;-68
2023/03/21 07:53:53;;;;;;;;;;;;;;;10.08;87.33;97245.75;109763;1244;69923;-67
2023/03/21 07:56:22;;;;;;;;;;;;;;;10.25;87.28;97245.41;109788;1245;69289;-66
2023/03/21 07:58:51;;;;;;;;;;;;;;;10.44;86.92;97245.94;109782;1244;59747;-67
2023/03/21 08:01:20;;;;;;;;;;;;;;;10.64;85.90;97243.74;109899;1252;59645;-66
2023/03/21 08:03:52;;;;;;;;;;;;;;;10.77;84.46;97246.58;109956;1245;72003;-66
2023/03/21 08:06:22;;;;;;;;;;;;;;;10.92;84.35;97249.45;109784;1244;69800;-70
2023/03/21 08:08:51;;;;;;;;;;;;;;;11.06;83.31;97249.91;110005;1244;69585;-69
2023/03/21 08:11:20;;;;;;;;;;;;;;;11.17;83.23;97252.73;109822;1243;59766;-69
2023/03/21 08:13:50;;;;;;;;;;;;;;;11.26;83.07;97254.34;109845;1244;59725;-70
2023/03/21 08:16:19;;;;;;;;;;;;;;;11.29;82.14;97248.48;109900;1244;71384;-70
2023/03/21 08:18:48;;;;;;;;;;;;;;;11.33;81.36;97248.75;110189;1245;69818;-69
2023/03/21 08:21:17;;;;;;;;;;;;;;;11.33;80.97;97250.09;109917;1244;69502;-69
2023/03/21 08:23:46;;;;;;;;;;;;;;;11.32;81.23;97250.93;109832;1245;59702;-69
2023/03/21 08:26:17;;;;;;;;;;;;;;;11.23;80.84;97254.20;110001;1244;59767;-68
2023/03/21 08:28:45;;;;;;;;;;;;;;;11.23;80.72;97252.79;110064;1251;70260;-70
2023/03/21 08:31:14;;;;;;;;;;;;;;;11.19;81.64;97251.03;110096;1244;69972;-70
2023/03/21 08:33:43;;;;;;;;;;;;;;;11.18;81.38;97252.50;110121;1244;69829;-68
2023/03/21 08:36:12;;;;;;;;;;;;;;;11.18;81.78;97251.48;110139;1244;59741;-68
2023/03/21 08:38:41;;;;;;;;;;;;;;;11.27;81.11;97252.21;110086;1244;59695;-69
2023/03/21 08:41:11;;;;;;;;;;;;;;;11.30;80.61;97250.70;110097;1241;71960;-68
2023/03/21 08:43:42;;;;;;;;;;;;;;;11.34;80.83;97248.80;110122;1244;69684;-69
2023/03/21 08:46:11;;;;;;;;;;;;;;;11.39;82.22;97249.27;110154;1245;69685;-70
2023/03/21 08:48:40;;;;;;;;;;;;;;;11.58;81.33;97252.32;110187;1251;59801;-69
2023/03/21 08:51:08;;;;;;;;;;;;;;;11.68;80.31;97249.76;110118;1244;59688;-69
2023/03/21 08:53:37;;;;;;;;;;;;;;;11.80;79.96;97251.14;110089;1244;70556;-69
2023/03/21 08:56:06;;;;;;;;;;;;;;;11.87;79.54;97248.46;110178;1244;69029;-69
2023/03/21 08:58:35;;;;;;;;;;;;;;;11.91;78.73;97246.08;110113;1244;69259;-71
2023/03/21 09:01:05;;;;;;;;;;;;;;;11.78;78.64;97245.84;110125;1244;59695;-70
2023/03/21 09:03:37;;;;;;;;;;;;;;;11.75;78.55;97246.77;110258;1244;59782;-70
2023/03/21 09:06:09;;;;;;;;;;;;;;;11.78;79.26;97248.48;110181;1241;70633;-70
2023/03/21 09:08:40;;;;;;;;;;;;;;;11.83;78.93;97248.06;110158;1244;69812;-69
2023/03/21 09:11:09;;;;;;;;;;;;;;;11.81;79.58;97248.27;110084;1243;69250;-70
2023/03/21 09:13:37;;;;;;;;;;;;;;;11.84;78.88;97250.11;110141;1241;59738;-70
2023/03/21 09:16:06;;;;;;;;;;;;;;;11.73;79.95;97247.27;110145;1245;59697;-70
2023/03/21 09:18:47;;;;;;;;;;;;;;;11.76;79.43;97245.45;110131;1244;70645;-70
2023/03/21 09:21:17;;;;;;;;;;;;;;;11.75;79.21;97246.76;110010;1243;69183;-70
2023/03/21 09:23:47;;;;;;;;;;;;;;;11.65;79.95;97241.98;110142;1244;69223;-71
2023/03/21 09:26:16;;;;;;;;;;;;;;;11.62;79.86;97240.83;110223;1244;60101;-70
2023/03/21 09:28:46;;;;;;;;;;;;;;;11.62;79.62;97239.94;110211;1241;59699;-70
2023/03/21 09:31:20;;;;;;;;;;;;;;;11.62;79.76;97241.67;110170;1244;70781;-70
2023/03/21 09:33:49;;;;;;;;;;;;;;;11.62;79.68;97237.14;110110;1244;69317;-70
2023/03/21 09:36:20;;;;;;;;;;;;;;;11.61;79.59;97238.48;110101;1244;69173;-70
2023/03/21 09:38:51;;;;;;;;;;;;;;;11.57;80.55;97235.83;110141;1244;59760;-70
2023/03/21 09:41:26;;;;;;;;;;;;;;;11.63;79.92;97235.02;110103;1241;59677;-70
2023/03/21 09:44:03;;;;;;;;;;;;;;;11.65;79.55;97235.17;110078;1246;71645;-69
2023/03/21 09:46:32;;;;;;;;;;;;;;;11.68;79.26;97228.43;109942;1245;68740;-70
2023/03/21 09:49:06;;;;;;;;;;;;;;;11.79;79.43;97225.02;110102;1244;69307;-70
2023/03/21 09:51:38;;;;;;;;;;;;;;;11.92;79.68;97229.57;110114;1245;59757;-70
2023/03/21 09:54:13;;;;;;;;;;;;;;;12.07;78.83;97233.06;110114;1245;59663;-70
2023/03/21 09:56:44;;;;;;;;;;;;;;;12.21;78.68;97232.42;110126;1242;71258;-70
2023/03/21 09:59:20;;;;;;;;;;;;;;;12.36;78.22;97234.84;110099;1244;68395;-69
2023/03/21 10:01:49;;;;;;;;;;;;;;;12.58;77.77;97232.69;110086;1242;68521;-70
2023/03/21 10:04:19;;;;;;;;;;;;;;;12.80;78.50;97233.45;110100;1243;59697;-70
2023/03/21 10:06:56;;;;;;;;;;;;;;;13.03;76.80;97231.48;110111;1244;59685;-70
2023/03/21 10:09:27;;;;;;;;;;;;;;;13.14;75.31;97230.56;110102;1244;71314;-71
2023/03/21 10:12:10;;;;;;;;;;;;;;;13.27;75.53;97226.30;110111;1245;69778;-69
2023/03/21 10:14:59;;;;;;;;;;;;;;;13.36;75.19;97227.61;110108;1245;69182;-69
2023/03/21 10:17:39;;;;;;;;;;;;;;;13.36;74.23;97223.13;110115;1244;59765;-69
2023/03/21 10:20:12;;;;;;;;;;;;;;;13.35;74.35;97223.13;110107;1244;59709;-71
2023/03/21 10:22:41;;;;;;;;;;;;;;;13.39;73.97;97226.48;110119;1245;71361;-69
2023/03/21 10:25:14;;;;;;;;;;;;;;;13.43;74.05;97225.94;110130;1244;69903;-68
2023/03/21 10:27:44;;;;;;;;;;;;;;;13.52;74.68;97224.51;110116;1245;69217;-71
2023/03/21 10:30:42;;;;;;;;;;;;;;;13.59;74.02;97221.38;110081;1243;59749;-70
2023/03/21 10:33:16;;;;;;;;;;;;;;;13.56;72.72;97223.58;109991;1244;59704;-71
2023/03/21 10:35:54;;;;;;;;;;;;;;;13.51;73.03;97223.34;109632;1244;602023;-71
2023/03/21 10:38:24;;;;;;;;;;;;;;;13.46;73.55;97221.29;110075;1244;69844;-71
2023/03/21 10:40:54;;;;;;;;;;;;;;;13.46;73.82;97219.73;110099;1244;68535;-70
2023/03/21 10:43:26;;;;;;;;;;;;;;;13.48;72.52;97219.93;110107;1244;59627;-70
2023/03/21 10:45:55;;;;;;;;;;;;;;;13.46;72.12;97216.95;110108;1244;59637;-70
2023/03/21 10:48:23;;;;;;;;;;;;;;;13.46;72.83;97212.20;110117;1244;71392;-69
2023/03/21 10:50:53;;;;;;;;;;;;;;;13.44;72.98;97213.95;110088;1242;69091;-71
2023/03/21 10:53:28;;;;;;;;;;;;;;;13.43;72.84;97213.39;110124;1244;69798;-70
2023/03/21 10:55:59;;;;;;;;;;;;;;;13.37;72.25;97208.80;110116;1244;59757;-70
2023/03/21 10:58:34;;;;;;;;;;;;;;;13.39;72.50;97210.92;110135;1245;59674;-69
2023/03/21 11:01:04;;;;;;;;;;;;;;;13.44;72.59;97206.83;110148;1244;71437;-70
2023/03/21 11:03:37;;;;;;;;;;;;;;;13.51;72.12;97203.17;110105;1243;69116;-69
2023/03/21 11:06:21;;;;;;;;;;;;;;;13.46;72.54;97201.55;110095;1244;69882;-70
2023/03/21 11:08:53;;;;;;;;;;;;;;;13.42;73.30;97199.61;110092;1243;59745;-69
2023/03/21 11:11:26;;;;;;;;;;;;;;;13.51;71.98;97199.68;110110;1242;59709;-70
2023/03/21 11:13:57;;;;;;;;;;;;;;;13.51;72.48;97197.42;110094;1244;69883;-70
2023/03/21 11:16:26;;;;;;;;;;;;;;;13.61;72.03;97196.86;110092;1241;69196;-70
2023/03/21 11:19:02;;;;;;;;;;;;;;;13.80;71.67;97195.39;110058;1244;69087;-70
2023/03/21 11:21:35;;;;;;;;;;;;;;;13.99;70.80;97190.70;110122;1244;59664;-70
2023/03/21 11:24:05;;;;;;;;;;;;;;;14.16;70.33;97192.30;110109;1244;59936;-71
2023/03/21 11:26:36;;;;;;;;;;;;;;;14.18;69.14;97188.21;110068;1245;71990;-69
2023/03/21 11:29:16;;;;;;;;;;;;;;;14.31;69.05;97181.98;110125;1244;69435;-70
2023/03/21 11:31:46;;;;;;;;;;;;;;;14.56;68.89;97179.17;110170;1245;69639;-70
2023/03/21 11:34:41;;;;;;;;;;;;;;;14.93;68.10;97177.17;110135;1244;59801;-70
2023/03/21 11:37:17;;;;;;;;;;;;;;;15.32;65.93;97172.36;110166;1245;59678;-70
2023/03/21 11:39:46;;;;;;;;;;;;;;;15.59;65.01;97165.02;110198;1245;70490;-70
2023/03/21 11:42:25;;;;;;;;;;;;;;;15.74;63.88;97168.19;110086;1243;68838;-70
2023/03/21 11:45:00;;;;;;;;;;;;;;;15.69;63.58;97159.91;110120;1241;69327;-70
2023/03/21 11:47:30;;;;;;;;;;;;;;;15.67;63.25;97156.80;110112;1245;59828;-70
2023/03/21 11:50:00;;;;;;;;;;;;;;;15.60;63.03;97157.17;110155;1242;59701;-71
2023/03/21 11:52:40;;;;;;;;;;;;;;;15.37;62.90;97155.36;110152;1244;71987;-70
2023/03/21 11:55:22;;;;;;;;;;;;;;;15.15;63.16;97156.33;110168;1241;68401;-70
2023/03/21 11:58:09;;;;;;;;;;;;;;;14.96;63.68;97155.92;110109;1244;69081;-70
2023/03/21 12:00:47;;;;;;;;;;;;;;;14.96;64.09;97149.70;110027;1245;59738;-69
2023/03/21 12:03:31;;;;;;;;;;;;;;;15.10;63.67;97147.42;110088;1244;59782;-68
2023/03/21 12:06:34;;;;;;;;;;;;;;;15.37;63.31;97139.10;110108;1241;70765;-70
2023/03/21 12:09:19;;;;;;;;;;;;;;;15.60;62.42;97134.55;110118;1244;69277;-69
2023/03/21 12:12:01;;;;;;;;;;;;;;;15.67;61.54;97135.45;110074;1244;69456;-70
2023/03/21 12:14:38;;;;;;;;;;;;;;;15.79;60.94;97127.80;110118;1242;59771;-70
2023/03/21 12:17:26;;;;;;;;;;;;;;;16.04;61.03;97126.92;110127;1241;59745;-70
2023/03/21 12:19:54;;;;;;;;;;;;;;;16.18;60.80;97123.05;110151;1241;70654;-70
2023/03/21 12:22:24;;;;;;;;;;;;;;;16.38;60.34;97120.03;110249;1244;68534;-69
2023/03/21 12:24:54;;;;;;;;;;;;;;;16.52;60.04;97116.06;110267;1244;69701;-69
2023/03/21 12:27:55;;;;;;;;;;;;;;;16.58;60.09;97112.54;110242;1242;59657;-70
2023/03/21 12:30:36;;;;;;;;;;;;;;;16.40;59.22;97113.80;109849;1244;59713;-70
2023/03/21 12:33:23;;;;;;;;;;;;;;;16.39;59.48;97113.60;110127;1244;71989;-71
2023/03/21 12:35:55;;;;;;;;;;;;;;;16.60;58.53;97110.00;110178;1244;69584;-70
2023/03/21 12:38:27;;;;;;;;;;;;;;;16.86;57.66;97099.48;110150;1244;69822;-70
2023/03/21 12:41:16;;;;;;;;;;;;;;;16.83;56.70;97097.09;110134;1243;59686;-69
2023/03/21 12:44:10;;;;;;;;;;;;;;;17.29;56.63;97091.23;110145;1244;59697;-69
2023/03/21 12:46:39;;;;;;;;;;;;;;;17.88;54.88;97082.60;110073;1244;71984;-70
2023/03/21 12:49:25;;;;;;;;;;;;;;;18.36;53.47;97081.24;110116;1241;70024;-70
2023/03/21 12:51:56;;;;;;;;;;;;;;;19.05;51.63;97079.15;110094;1244;69116;-70
2023/03/21 12:54:25;;;;;;;;;;;;;;;19.59;51.02;97078.58;110145;1244;59761;-68
2023/03/21 12:57:10;;;;;;;;;;;;;;;20.07;48.08;97071.23;110088;1246;59721;-69
2023/03/21 13:00:09;;;;;;;;;;;;;;;20.60;46.87;97067.31;110110;1241;71966;-69
2023/03/21 13:02:57;;;;;;;;;;;;;;;21.33;45.73;97055.83;109852;1241;69254;-69
2023/03/21 13:05:32;;;;;;;;;;;;;;;22.08;43.62;97051.65;110058;1244;70055;-70
2023/03/21 13:08:17;;;;;;;;;;;;;;;22.34;43.64;97051.92;110094;1244;59750;-68
2023/03/21 13:10:45;;;;;;;;;;;;;;;22.61;41.42;97046.39;110152;1242;59712;-69
2023/03/21 13:13:21;;;;;;;;;;;;;;;22.38;40.63;97048.49;110097;1243;71792;-70
2023/03/21 13:16:08;;;;;;;;;;;;;;;22.04;41.54;97043.77;110115;1242;69771;-71
2023/03/21 13:18:41;;;;;;;;;;;;;;;22.10;41.81;97042.20;110082;1244;69928;-70
2023/03/21 13:21:15;;;;;;;;;;;;;;;21.79;41.80;97046.29;110118;1244;59747;-70